createdAt,value
2018-09-12T00:01:37.578Z,17.90
2018-09-12T00:04:06.079Z,20.63
2018-09-12T00:06:34.592Z,14.23
2018-09-12T00:09:03.127Z,14.53
2018-09-12T00:11:31.609Z,12.68
2018-09-12T00:14:00.590Z,18.47
2018-09-12T00:16:29.067Z,12.97
2018-09-12T00:18:57.551Z,12.73
2018-09-12T00:21:27.359Z,16.23
2018-09-12T00:23:55.842Z,14.77
2018-09-12T00:26:24.330Z,13.70
2018-09-12T00:28:53.761Z,12.63
2018-09-12T00:31:22.350Z,19.10
2018-09-12T00:33:50.849Z,14.77
2018-09-12T00:36:19.674Z,15.37
2018-09-12T00:38:48.182Z,15.47
2018-09-12T00:41:17.526Z,15.03
2018-09-12T00:43:46.021Z,13.93
2018-09-12T00:51:18.342Z,13.67
2018-09-12T00:53:46.842Z,17.13
2018-09-12T01:01:09.542Z,14.40
2018-09-12T01:03:38.025Z,15.30
2018-09-12T01:06:06.986Z,13.70
2018-09-12T01:08:35.602Z,12.70
2018-09-12T01:11:04.109Z,20.53
2018-09-12T01:13:32.999Z,24.93
2018-09-12T01:16:01.513Z,21.60
2018-09-12T01:18:30.013Z,17.77
2018-09-12T01:20:58.486Z,15.20
2018-09-12T01:23:27.445Z,18.30
2018-09-12T01:25:55.929Z,16.60
2018-09-12T01:28:24.430Z,17.45
2018-09-12T01:30:53.609Z,16.90
2018-09-12T01:33:22.125Z,12.60
2018-09-12T01:35:50.582Z,12.97
2018-09-12T01:38:19.192Z,13.17
2018-09-12T01:40:47.756Z,20.47
2018-09-12T01:43:17.377Z,17.85
2018-09-12T01:45:46.354Z,13.60
2018-09-12T01:53:08.955Z,20.20
2018-09-12T01:55:37.606Z,24.60
2018-09-12T01:58:06.230Z,16.93
2018-09-12T02:00:40.710Z,21.75
2018-09-12T02:03:09.686Z,12.67
2018-09-12T02:05:38.677Z,13.70
2018-09-12T02:08:08.025Z,12.10
2018-09-12T02:10:36.539Z,16.50
2018-09-12T02:13:05.034Z,14.20
2018-09-12T02:15:33.615Z,15.90
2018-09-12T02:18:02.086Z,12.83
2018-09-12T02:20:30.631Z,12.80
2018-09-12T02:22:59.228Z,12.40
2018-09-12T02:25:27.721Z,12.03
2018-09-12T02:27:56.205Z,14.70
2018-09-12T02:30:25.361Z,13.60
2018-09-12T02:32:54.534Z,12.67
2018-09-12T02:35:23.022Z,14.63
2018-09-12T02:37:51.518Z,11.50
2018-09-12T02:40:19.996Z,18.30
2018-09-12T02:42:48.477Z,13.57
2018-09-12T02:45:18.008Z,16.60
2018-09-12T02:47:46.473Z,14.40
2018-09-12T02:55:14.463Z,13.70
2018-09-12T02:57:42.946Z,14.40
2018-09-12T03:00:11.490Z,17.30
2018-09-12T03:02:40.007Z,31.07
2018-09-12T03:05:08.564Z,13.25
2018-09-12T03:07:37.150Z,13.43
2018-09-12T03:10:06.857Z,18.73
2018-09-12T03:12:35.364Z,15.28
2018-09-12T03:15:03.886Z,14.17
2018-09-12T03:17:32.729Z,13.95
2018-09-12T03:20:01.219Z,12.57
2018-09-12T03:22:29.697Z,13.70
2018-09-12T03:24:58.838Z,14.33
2018-09-12T03:27:28.524Z,17.60
2018-09-12T03:29:57.058Z,12.73
2018-09-12T03:32:25.606Z,13.35
2018-09-12T03:34:54.773Z,15.10
2018-09-12T03:37:23.353Z,21.90
2018-09-12T03:39:52.034Z,17.20
2018-09-12T03:42:20.549Z,14.10
2018-09-12T03:44:49.032Z,13.60
2018-09-12T03:47:17.561Z,12.73
2018-09-12T03:49:46.093Z,15.10
2018-09-12T03:57:07.849Z,15.90
2018-09-12T03:59:36.389Z,21.10
2018-09-12T04:02:04.906Z,26.37
2018-09-12T04:04:33.415Z,20.00
2018-09-12T04:07:01.893Z,20.80
2018-09-12T04:09:30.381Z,15.73
2018-09-12T04:11:58.903Z,17.23
2018-09-12T04:14:27.382Z,16.27
2018-09-12T04:16:55.927Z,17.00
2018-09-12T04:19:24.687Z,15.17
2018-09-12T04:21:53.168Z,18.50
2018-09-12T04:24:21.732Z,13.97
2018-09-12T04:26:50.232Z,15.97
2018-09-12T04:29:18.751Z,17.70
2018-09-12T04:31:47.242Z,16.70
2018-09-12T04:39:12.093Z,17.00
2018-09-12T04:41:40.567Z,14.37
2018-09-12T04:44:09.041Z,25.77
2018-09-12T04:46:37.629Z,16.05
2018-09-12T04:49:06.302Z,16.87
2018-09-12T04:51:34.798Z,16.03
2018-09-12T04:54:03.338Z,20.40
2018-09-12T04:56:31.801Z,21.10
2018-09-12T04:59:00.273Z,21.57
2018-09-12T05:01:29.322Z,16.60
2018-09-12T05:03:57.781Z,29.47
2018-09-12T05:06:26.277Z,20.27
2018-09-12T05:08:54.802Z,15.10
2018-09-12T05:11:23.285Z,21.20
2018-09-12T05:13:51.785Z,24.13
2018-09-12T05:16:20.290Z,17.57
2018-09-12T05:18:48.766Z,24.73
2018-09-12T05:21:17.514Z,24.50
2018-09-12T05:23:46.481Z,17.03
2018-09-12T05:31:10.208Z,28.90
2018-09-12T05:33:38.714Z,23.10
2018-09-12T05:36:07.385Z,17.90
2018-09-12T05:38:35.885Z,14.20
2018-09-12T05:41:05.350Z,18.57
2018-09-12T05:43:34.021Z,21.00
2018-09-12T05:46:02.899Z,18.43
2018-09-12T05:48:32.200Z,15.90
2018-09-12T05:51:00.658Z,19.63
2018-09-12T05:53:29.182Z,13.93
2018-09-12T05:55:57.657Z,13.27
2018-09-12T05:58:26.248Z,23.73
2018-09-12T06:00:54.762Z,15.43
2018-09-12T06:03:23.250Z,13.53
2018-09-12T06:05:52.355Z,13.30
2018-09-12T06:08:21.150Z,20.05
2018-09-12T06:10:49.618Z,15.93
2018-09-12T06:13:18.098Z,20.03
2018-09-12T06:15:46.643Z,18.27
2018-09-12T06:23:10.926Z,16.63
2018-09-12T06:25:39.447Z,19.15
2018-09-12T06:28:07.943Z,15.03
2018-09-12T06:30:37.032Z,18.50
2018-09-12T06:33:05.486Z,20.13
2018-09-12T06:35:33.986Z,23.77
2018-09-12T06:38:02.963Z,21.93
2018-09-12T06:40:31.429Z,24.43
2018-09-12T06:43:00.834Z,13.93
2018-09-12T06:45:29.342Z,18.43
2018-09-12T06:47:57.899Z,23.80
2018-09-12T06:50:26.359Z,18.57
2018-09-12T06:52:55.373Z,14.80
2018-09-12T06:55:23.875Z,14.25
2018-09-12T06:57:52.991Z,9.80
2018-09-12T07:00:21.490Z,12.66
2018-09-12T07:02:50.166Z,14.03
2018-09-12T07:05:18.681Z,16.20
2018-09-12T07:07:47.269Z,10.73
2018-09-12T07:15:11.429Z,8.33
2018-09-12T07:17:39.941Z,14.60
2018-09-12T07:20:09.006Z,8.87
2018-09-12T07:22:37.976Z,7.80
2018-09-12T07:25:07.058Z,8.18
2018-09-12T07:27:35.563Z,7.27
2018-09-12T07:30:04.100Z,13.60
2018-09-12T07:32:33.044Z,8.60
2018-09-12T07:35:01.505Z,5.90
2018-09-12T07:37:30.718Z,8.78
2018-09-12T07:39:59.236Z,9.43
2018-09-12T07:42:27.721Z,8.25
2018-09-12T07:44:56.766Z,8.40
2018-09-12T07:47:25.304Z,12.28
2018-09-12T07:49:53.821Z,8.10
2018-09-12T07:52:22.310Z,6.50
2018-09-12T07:54:50.757Z,6.93
2018-09-12T07:57:19.451Z,11.43
2018-09-12T07:59:49.117Z,8.83
2018-09-12T08:02:18.027Z,5.80
2018-09-12T08:04:46.542Z,13.20
2018-09-12T08:12:15.395Z,5.90
2018-09-12T08:14:43.907Z,9.60
2018-09-12T08:17:12.372Z,6.70
2018-09-12T08:19:41.211Z,6.60
2018-09-12T08:22:11.054Z,5.43
2018-09-12T08:24:39.546Z,4.87
2018-09-12T08:27:08.061Z,4.70
2018-09-12T08:29:36.534Z,4.77
2018-09-12T08:32:05.026Z,9.73
2018-09-12T08:34:33.525Z,5.80
2018-09-12T08:37:02.023Z,9.07
2018-09-12T08:39:30.505Z,5.03
2018-09-12T08:41:59.337Z,8.37
2018-09-12T08:44:27.877Z,8.63
2018-09-12T08:46:56.820Z,10.30
2018-09-12T08:49:25.696Z,9.13
2018-09-12T08:51:54.230Z,49.00
2018-09-12T08:54:22.714Z,16.93
2018-09-12T08:56:51.457Z,10.83
2018-09-12T08:59:19.908Z,26.13
2018-09-12T09:01:48.437Z,8.38
2018-09-12T09:04:17.554Z,8.10
2018-09-12T09:06:46.041Z,18.83
2018-09-12T09:14:10.234Z,4.57
2018-09-12T09:16:38.744Z,5.53
2018-09-12T09:19:07.245Z,9.63
2018-09-12T09:21:42.930Z,7.83
2018-09-12T09:24:11.401Z,6.57
2018-09-12T09:26:39.894Z,6.43
2018-09-12T09:29:08.624Z,9.97
2018-09-12T09:31:37.111Z,4.03
2018-09-12T09:34:05.761Z,13.10
2018-09-12T09:36:36.049Z,9.13
2018-09-12T09:39:07.870Z,4.17
2018-09-12T09:41:36.543Z,13.00
2018-09-12T09:44:05.212Z,4.83
2018-09-12T09:46:33.737Z,10.43
2018-09-12T09:49:03.401Z,4.80
2018-09-12T09:51:32.011Z,4.65
2018-09-12T09:54:00.565Z,3.77
2018-09-12T09:56:29.067Z,5.15
2018-09-12T09:59:04.165Z,3.43
2018-09-12T10:03:42.776Z,3.35
2018-09-12T10:06:17.576Z,3.97
2018-09-12T10:08:51.483Z,22.90
2018-09-12T10:11:19.970Z,8.50
2018-09-12T10:13:49.291Z,6.70
2018-09-12T10:16:17.777Z,5.57
2018-09-12T10:18:46.274Z,5.67
2018-09-12T10:26:15.206Z,7.60
2018-09-12T10:28:43.669Z,5.80
2018-09-12T10:31:12.193Z,5.73
2018-09-12T10:33:40.722Z,10.60
2018-09-12T10:36:09.254Z,13.03
2018-09-12T10:38:37.776Z,14.07
2018-09-12T10:41:06.445Z,10.27
2018-09-12T10:43:34.862Z,8.67
2018-09-12T10:46:03.348Z,12.63
2018-09-12T10:48:32.339Z,24.70
2018-09-12T10:51:01.393Z,6.07
2018-09-12T10:53:29.921Z,8.85
2018-09-12T10:55:58.449Z,7.33
2018-09-12T10:58:26.921Z,14.13
2018-09-12T11:00:55.427Z,11.70
2018-09-12T11:03:23.938Z,7.35
2018-09-12T11:05:52.523Z,11.33
2018-09-12T11:08:21.029Z,5.70
2018-09-12T11:10:50.035Z,9.70
2018-09-12T11:13:18.543Z,5.43
2018-09-12T11:15:47.105Z,5.93
2018-09-12T11:18:17.522Z,7.80
2018-09-12T11:20:46.474Z,10.00
2018-09-12T11:28:15.198Z,7.27
2018-09-12T11:30:44.008Z,7.80
2018-09-12T11:33:12.526Z,11.68
2018-09-12T11:35:41.205Z,10.67
2018-09-12T11:38:09.910Z,7.93
2018-09-12T11:40:38.609Z,7.50
2018-09-12T11:43:07.161Z,7.90
2018-09-12T11:45:36.448Z,8.10
2018-09-12T11:48:04.975Z,6.23
2018-09-12T11:50:33.574Z,11.18
2018-09-12T11:53:02.919Z,9.50
2018-09-12T11:55:31.440Z,10.65
2018-09-12T11:57:59.916Z,7.73
2018-09-12T12:00:28.438Z,9.65
2018-09-12T12:02:56.905Z,11.83
2018-09-12T12:05:25.438Z,6.20
2018-09-12T12:07:53.878Z,7.93
2018-09-12T12:10:22.444Z,6.13
2018-09-12T12:12:51.682Z,6.47
2018-09-12T12:15:20.193Z,7.23
2018-09-12T12:17:48.655Z,10.23
2018-09-12T12:20:17.438Z,8.33
2018-09-12T12:22:45.905Z,14.83
2018-09-12T12:30:13.060Z,7.90
2018-09-12T12:32:41.550Z,11.17
2018-09-12T12:35:10.071Z,8.93
2018-09-12T12:37:38.602Z,5.27
2018-09-12T12:40:07.179Z,8.20
2018-09-12T12:42:35.698Z,7.27
2018-09-12T12:45:05.573Z,7.47
2018-09-12T12:47:34.049Z,5.40
2018-09-12T12:50:02.517Z,7.30
2018-09-12T12:52:31.532Z,5.10
2018-09-12T12:55:01.248Z,17.13
2018-09-12T12:57:29.763Z,6.90
2018-09-12T12:59:58.299Z,9.87
2018-09-12T13:02:26.773Z,7.70
2018-09-12T13:04:55.245Z,5.73
2018-09-12T13:07:24.053Z,5.67
2018-09-12T13:09:52.525Z,7.20
2018-09-12T13:12:21.029Z,7.25
2018-09-12T13:14:49.905Z,9.40
2018-09-12T13:17:18.721Z,6.57
2018-09-12T13:19:47.195Z,4.70
2018-09-12T13:27:10.224Z,13.30
2018-09-12T13:29:38.703Z,5.73
2018-09-12T13:32:07.241Z,7.03
2018-09-12T13:34:36.354Z,8.90
2018-09-12T13:37:04.876Z,6.93
2018-09-12T13:39:33.818Z,8.93
2018-09-12T13:42:02.375Z,9.23
2018-09-12T13:44:31.313Z,6.20
2018-09-12T13:47:00.873Z,9.43
2018-09-12T13:49:29.853Z,7.33
2018-09-12T13:51:58.370Z,5.80
2018-09-12T13:54:26.866Z,6.40
2018-09-12T13:56:56.533Z,4.90
2018-09-12T13:59:25.090Z,5.20
2018-09-12T14:01:53.664Z,5.37
2018-09-12T14:04:22.791Z,8.02
2018-09-12T14:06:52.131Z,7.13
2018-09-12T14:09:20.605Z,9.70
2018-09-12T14:11:49.174Z,7.47
2018-09-12T14:14:17.749Z,12.18
2018-09-12T14:16:46.297Z,6.03
2018-09-12T14:24:12.725Z,5.13
2018-09-12T14:26:41.297Z,9.93
2018-09-12T14:29:09.801Z,10.77
2018-09-12T14:31:38.517Z,5.07
2018-09-12T14:34:06.993Z,6.10
2018-09-12T14:36:35.538Z,5.25
2018-09-12T14:39:05.583Z,8.03
2018-09-12T14:41:34.101Z,8.65
2018-09-12T14:44:02.629Z,13.43
2018-09-12T14:46:31.562Z,25.97
2018-09-12T14:49:00.079Z,13.97
2018-09-12T14:51:28.598Z,13.38
2018-09-12T14:53:57.106Z,8.67
2018-09-12T14:56:26.046Z,5.10
2018-09-12T14:58:55.017Z,8.13
2018-09-12T15:01:23.510Z,5.97
2018-09-12T15:03:51.994Z,8.63
2018-09-12T15:06:20.478Z,7.10
2018-09-12T15:08:49.838Z,6.33
2018-09-12T15:11:18.504Z,6.10
2018-09-12T15:13:46.980Z,8.37
2018-09-12T15:21:12.245Z,6.73
2018-09-12T15:23:40.783Z,8.20
2018-09-12T15:26:09.301Z,7.33
2018-09-12T15:28:38.118Z,6.73
2018-09-12T15:31:06.662Z,11.37
2018-09-12T15:33:35.171Z,6.33
2018-09-12T15:36:03.711Z,6.17
2018-09-12T15:38:32.158Z,8.70
2018-09-12T15:41:00.649Z,5.90
2018-09-12T15:43:32.622Z,6.37
2018-09-12T15:46:01.104Z,6.33
2018-09-12T15:48:30.206Z,6.10
2018-09-12T15:50:59.309Z,8.37
2018-09-12T15:53:27.842Z,6.20
2018-09-12T15:55:56.347Z,8.60
2018-09-12T15:58:25.498Z,8.73
2018-09-12T16:00:54.798Z,9.20
2018-09-12T16:03:23.274Z,10.20
2018-09-12T16:05:51.802Z,10.07
2018-09-12T16:08:20.282Z,6.40
2018-09-12T16:10:48.753Z,6.30
2018-09-12T16:13:18.122Z,5.60
2018-09-12T16:15:46.607Z,9.30
2018-09-12T16:23:09.033Z,9.63
2018-09-12T16:25:37.545Z,10.30
2018-09-12T16:28:06.281Z,7.87
2018-09-12T16:30:34.903Z,11.20
2018-09-12T16:33:03.394Z,11.50
2018-09-12T16:35:31.886Z,11.43
2018-09-12T16:38:00.494Z,14.70
2018-09-12T16:40:28.978Z,38.43
2018-09-12T16:42:57.477Z,28.90
2018-09-12T16:45:25.994Z,37.13
2018-09-12T16:47:54.478Z,19.93
2018-09-12T16:50:23.582Z,15.60
2018-09-12T16:52:52.417Z,17.70
2018-09-12T16:55:20.912Z,25.30
2018-09-12T16:57:49.379Z,9.73
2018-09-12T17:00:17.910Z,14.50
2018-09-12T17:02:46.933Z,12.47
2018-09-12T17:10:13.019Z,16.93
2018-09-12T17:12:41.518Z,11.47
2018-09-12T17:15:10.016Z,19.40
2018-09-12T17:17:38.533Z,19.73
2018-09-12T17:20:07.817Z,29.90
2018-09-12T17:22:36.305Z,31.90
2018-09-12T17:25:05.298Z,22.70
2018-09-12T17:27:35.142Z,38.08
2018-09-12T17:30:03.686Z,30.70
2018-09-12T17:32:32.798Z,32.80
2018-09-12T17:35:01.899Z,23.60
2018-09-12T17:37:30.402Z,22.27
2018-09-12T17:39:58.907Z,32.60
2018-09-12T17:42:27.419Z,32.90
2018-09-12T17:44:56.154Z,30.73
2018-09-12T17:47:24.658Z,35.13
2018-09-12T17:49:53.150Z,28.27
2018-09-12T17:52:21.634Z,37.42
2018-09-12T17:54:50.251Z,35.77
2018-09-12T17:57:18.837Z,37.63
2018-09-12T17:59:47.430Z,29.80
2018-09-12T18:02:17.525Z,23.02
2018-09-12T18:04:46.693Z,33.17
2018-09-12T18:17:06.949Z,21.97
2018-09-12T18:19:35.455Z,29.37
2018-09-12T18:22:04.109Z,17.13
2018-09-12T18:24:33.551Z,34.37
2018-09-12T18:27:02.173Z,24.70
2018-09-12T18:29:30.838Z,22.07
2018-09-12T18:31:59.366Z,38.00
2018-09-12T18:34:28.062Z,27.57
2018-09-12T18:36:56.640Z,27.22
2018-09-12T18:39:25.262Z,33.85
2018-09-12T18:41:53.757Z,45.27
2018-09-12T18:44:22.269Z,24.33
2018-09-12T18:46:51.710Z,22.47
2018-09-12T18:49:20.726Z,18.60
2018-09-12T18:51:49.263Z,28.33
2018-09-12T18:54:17.824Z,22.87
2018-09-12T18:56:46.425Z,27.10
2018-09-12T19:04:12.712Z,34.43
2018-09-12T19:06:41.952Z,22.20
2018-09-12T19:09:12.229Z,19.42
2018-09-12T19:11:40.824Z,26.37
2018-09-12T19:14:09.355Z,15.90
2018-09-12T19:16:38.090Z,31.17
2018-09-12T19:19:07.582Z,20.80
2018-09-12T19:21:36.286Z,38.40
2018-09-12T19:24:04.934Z,23.77
2018-09-12T19:26:33.704Z,22.00
2018-09-12T19:29:02.182Z,28.47
2018-09-12T19:31:30.894Z,25.70
2018-09-12T19:33:59.647Z,25.80
2018-09-12T19:36:28.249Z,26.10
2018-09-12T19:38:57.606Z,23.40
2018-09-12T19:41:26.219Z,25.90
2018-09-12T19:43:54.926Z,23.00
2018-09-12T19:46:23.514Z,22.52
2018-09-12T19:48:52.112Z,26.80
2018-09-12T19:51:20.702Z,27.85
2018-09-12T19:53:49.493Z,23.57
2018-09-12T19:56:18.035Z,19.20
2018-09-12T19:58:46.735Z,22.57
2018-09-12T20:06:09.482Z,20.47
2018-09-12T20:08:39.468Z,16.97
2018-09-12T20:11:07.946Z,36.30
2018-09-12T20:13:36.529Z,32.20
2018-09-12T20:16:06.013Z,25.80
2018-09-12T20:18:35.632Z,30.97
2018-09-12T20:21:04.250Z,20.33
2018-09-12T20:23:32.806Z,21.65
2018-09-12T20:26:01.282Z,52.50
2018-09-12T20:28:33.545Z,29.07
2018-09-12T20:31:02.611Z,37.87
2018-09-12T20:33:31.098Z,22.63
2018-09-12T20:35:59.607Z,16.00
2018-09-12T20:38:28.655Z,31.17
2018-09-12T20:40:57.271Z,17.47
2018-09-12T20:43:25.825Z,21.83
2018-09-12T20:45:54.316Z,17.23
2018-09-12T20:48:22.928Z,23.18
2018-09-12T20:50:52.221Z,35.38
2018-09-12T20:53:20.783Z,18.98
2018-09-12T20:55:49.269Z,20.90
2018-09-12T20:58:17.767Z,22.73
2018-09-12T21:00:46.295Z,21.00
2018-09-12T21:08:13.374Z,18.30
2018-09-12T21:10:42.389Z,13.63
2018-09-12T21:13:10.882Z,29.13
2018-09-12T21:15:39.418Z,17.97
2018-09-12T21:18:07.957Z,18.63
2018-09-12T21:20:36.385Z,17.30
2018-09-12T21:23:05.599Z,15.77
2018-09-12T21:25:34.111Z,21.40
2018-09-12T21:28:02.684Z,26.20
2018-09-12T21:30:31.519Z,15.17
2018-09-12T21:32:59.995Z,20.10
2018-09-12T21:35:28.461Z,25.32
2018-09-12T21:37:56.983Z,21.57
2018-09-12T21:40:25.526Z,14.33
2018-09-12T21:42:54.004Z,17.30
2018-09-12T21:45:23.555Z,17.50
2018-09-12T21:47:52.017Z,17.93
2018-09-12T21:50:20.548Z,18.87
2018-09-12T21:52:49.373Z,18.03
2018-09-12T21:55:17.920Z,16.77
2018-09-12T21:57:46.448Z,18.75
2018-09-12T22:05:09.454Z,20.00
2018-09-12T22:07:37.925Z,24.73
2018-09-12T22:10:06.438Z,14.87
2018-09-12T22:12:36.273Z,16.10
2018-09-12T22:17:39.538Z,15.63
2018-09-12T22:20:08.053Z,16.53
2018-09-12T22:22:36.561Z,23.50
2018-09-12T22:25:05.100Z,25.47
2018-09-12T22:27:33.599Z,25.45
2018-09-12T22:30:02.082Z,15.00
2018-09-12T22:32:31.098Z,15.73
2018-09-12T22:35:00.088Z,22.17
2018-09-12T22:37:28.590Z,15.40
2018-09-12T22:39:57.114Z,15.27
2018-09-12T22:42:26.287Z,20.43
2018-09-12T22:44:55.417Z,17.67
2018-09-12T22:47:23.924Z,17.10
2018-09-12T22:49:52.418Z,18.60
2018-09-12T22:52:20.890Z,27.32
2018-09-12T22:54:49.474Z,22.33
2018-09-12T22:57:17.993Z,17.33
2018-09-12T22:59:46.466Z,18.57
2018-09-12T23:07:09.126Z,18.00
2018-09-12T23:09:37.607Z,17.73
2018-09-12T23:12:06.106Z,15.40
2018-09-12T23:14:35.855Z,16.70
2018-09-12T23:17:04.884Z,17.53
2018-09-12T23:19:33.387Z,15.45
2018-09-12T23:22:01.915Z,15.70
2018-09-12T23:24:30.395Z,18.83
2018-09-12T23:26:58.881Z,30.40
2018-09-12T23:29:27.417Z,19.03
2018-09-12T23:31:55.895Z,16.10
2018-09-12T23:34:24.386Z,18.60
2018-09-12T23:36:53.338Z,15.63
2018-09-12T23:39:21.846Z,18.40
2018-09-12T23:41:50.318Z,17.40
2018-09-12T23:44:18.813Z,15.70
2018-09-12T23:46:47.312Z,14.43
2018-09-12T23:49:17.414Z,18.85
2018-09-12T23:51:46.781Z,15.13
2018-09-12T23:59:09.248Z,14.83
